createdAt,value
2022-12-13T00:00:46.073Z,100045.53
2022-12-13T00:03:12.705Z,100055.00
2022-12-13T00:05:45.465Z,100055.88
2022-12-13T00:08:12.216Z,100054.19
2022-12-13T00:10:38.809Z,100047.25
2022-12-13T00:13:05.345Z,100044.63
2022-12-13T00:15:31.778Z,100045.47
2022-12-13T00:17:58.232Z,100048.88
2022-12-13T00:20:24.767Z,100040.22
2022-12-13T00:22:52.789Z,100047.16
2022-12-13T00:25:21.363Z,100048.84
2022-12-13T00:27:47.962Z,100049.69
2022-12-13T00:30:14.424Z,100052.22
2022-12-13T00:32:40.910Z,100047.00
2022-12-13T00:35:07.657Z,100046.16
2022-12-13T00:37:34.231Z,100051.31
2022-12-13T00:40:00.690Z,100048.75
2022-12-13T00:42:27.147Z,100015.84
2022-12-13T00:44:53.803Z,100013.22
2022-12-13T00:47:22.306Z,100033.97
2022-12-13T00:49:48.884Z,100010.63
2022-12-13T00:52:15.537Z,100017.47
2022-12-13T00:54:41.981Z,100039.06
2022-12-13T00:57:08.522Z,100032.06
2022-12-13T00:59:34.991Z,100041.53
2022-12-13T01:02:03.557Z,100033.63
2022-12-13T01:04:29.995Z,100044.00
2022-12-13T01:06:56.527Z,100046.63
2022-12-13T01:09:29.754Z,100034.53
2022-12-13T01:11:58.778Z,100038.91
2022-12-13T01:14:25.918Z,100033.78
2022-12-13T01:16:55.735Z,100049.25
2022-12-13T01:19:24.006Z,100045.69
2022-12-13T01:22:04.350Z,100039.59
2022-12-13T01:24:32.178Z,100044.88
2022-12-13T01:26:58.740Z,100027.56
2022-12-13T01:29:27.221Z,100031.84
2022-12-13T01:31:54.250Z,100039.56
2022-12-13T01:34:26.465Z,100037.84
2022-12-13T01:36:58.253Z,100040.31
2022-12-13T01:39:27.064Z,100044.53
2022-12-13T01:42:03.558Z,100046.19
2022-12-13T01:45:03.081Z,100043.50
2022-12-13T01:47:51.667Z,99999.38
2022-12-13T01:50:23.743Z,100010.72
2022-12-13T01:52:51.631Z,100039.28
2022-12-13T01:55:20.367Z,100032.34
2022-12-13T01:57:49.791Z,100038.34
2022-12-13T02:00:17.190Z,100032.28
2022-12-13T02:02:44.418Z,100036.63
2022-12-13T02:05:23.557Z,100041.81
2022-12-13T02:07:51.100Z,100027.13
2022-12-13T02:10:17.840Z,100038.31
2022-12-13T02:12:44.409Z,100037.44
2022-12-13T02:15:14.466Z,100029.63
2022-12-13T02:17:56.502Z,100028.81
2022-12-13T02:20:50.494Z,100030.53
2022-12-13T02:23:29.115Z,99996.78
2022-12-13T02:26:32.946Z,100027.91
2022-12-13T02:29:33.440Z,100027.84
2022-12-13T02:32:18.219Z,100017.53
2022-12-13T02:35:00.119Z,100029.53
2022-12-13T02:37:37.596Z,99994.94
2022-12-13T02:40:30.413Z,100028.63
2022-12-13T02:42:59.925Z,100022.63
2022-12-13T02:45:44.301Z,100025.22
2022-12-13T02:48:13.159Z,100023.53
2022-12-13T02:50:41.094Z,100024.38
2022-12-13T02:53:09.649Z,100014.91
2022-12-13T02:55:39.358Z,99986.31
2022-12-13T02:58:06.353Z,100012.22
2022-12-13T03:00:51.791Z,100008.78
2022-12-13T03:03:24.515Z,99998.41
2022-12-13T03:06:33.871Z,100005.31
2022-12-13T03:09:38.473Z,100007.06
2022-12-13T03:12:38.909Z,100004.47
2022-12-13T03:15:25.436Z,100007.00
2022-12-13T03:18:17.310Z,100004.34
2022-12-13T03:20:52.957Z,100006.06
2022-12-13T03:23:21.757Z,99997.34
2022-12-13T03:25:54.331Z,99999.97
2022-12-13T03:28:21.380Z,99997.31
2022-12-13T03:30:47.942Z,100008.53
2022-12-13T03:33:14.521Z,99999.84
2022-12-13T03:35:45.156Z,99994.53
2022-12-13T03:38:22.466Z,99998.88
2022-12-13T03:40:58.923Z,100004.03
2022-12-13T03:43:25.999Z,99988.47
2022-12-13T03:45:54.219Z,99994.50
2022-12-13T03:48:22.875Z,99986.69
2022-12-13T03:50:51.625Z,99991.13
2022-12-13T03:53:23.062Z,99992.00
2022-12-13T03:56:01.107Z,99980.84
2022-12-13T03:58:35.221Z,99983.41
2022-12-13T04:01:09.467Z,99989.59
2022-12-13T04:03:36.994Z,99988.72
2022-12-13T04:06:04.573Z,99991.44
2022-12-13T04:08:31.388Z,99990.66
2022-12-13T04:10:57.878Z,99977.66
2022-12-13T04:13:33.037Z,99950.22
2022-12-13T04:16:00.404Z,99980.50
2022-12-13T04:18:27.105Z,99985.56
2022-12-13T04:20:53.840Z,99979.59
2022-12-13T04:23:20.305Z,99978.78
2022-12-13T04:25:46.860Z,99976.28
2022-12-13T04:28:21.609Z,99988.28
2022-12-13T04:30:52.611Z,99959.56
2022-12-13T04:33:21.965Z,99983.00
2022-12-13T04:35:48.721Z,99985.56
2022-12-13T04:38:15.706Z,99966.59
2022-12-13T04:40:42.465Z,99942.34
2022-12-13T04:43:08.966Z,99973.44
2022-12-13T04:45:35.850Z,99983.84
2022-12-13T04:48:02.411Z,99982.09
2022-12-13T04:50:29.020Z,99978.53
2022-12-13T04:52:55.660Z,99980.19
2022-12-13T04:55:22.136Z,99998.34
2022-12-13T04:57:48.574Z,99984.69
2022-12-13T05:00:15.803Z,99992.50
2022-12-13T05:02:42.533Z,99987.31
2022-12-13T05:05:10.853Z,99978.63
2022-12-13T05:07:41.860Z,99981.19
2022-12-13T05:10:10.167Z,99975.06
2022-12-13T05:12:36.620Z,99981.03
2022-12-13T05:15:03.283Z,99975.78
2022-12-13T05:17:29.866Z,99948.94
2022-12-13T05:19:56.381Z,99987.03
2022-12-13T05:22:22.832Z,99983.56
2022-12-13T05:24:49.743Z,99993.09
2022-12-13T05:27:25.863Z,99991.34
2022-12-13T05:30:03.344Z,99991.34
2022-12-13T05:32:43.657Z,99990.41
2022-12-13T05:35:21.975Z,99988.69
2022-12-13T05:37:53.382Z,99988.69
2022-12-13T05:40:20.407Z,99987.88
2022-12-13T05:42:46.814Z,99947.28
2022-12-13T05:45:13.679Z,99977.66
2022-12-13T05:47:40.734Z,99984.47
2022-12-13T05:50:07.619Z,99973.31
2022-12-13T05:52:34.050Z,99974.16
2022-12-13T05:55:01.126Z,99969.88
2022-12-13T05:57:28.065Z,99963.88
2022-12-13T05:59:54.528Z,99969.88
2022-12-13T06:02:21.830Z,99981.03
2022-12-13T06:04:48.737Z,99970.72
2022-12-13T06:07:15.508Z,99976.69
2022-12-13T06:09:42.329Z,99977.59
2022-12-13T06:12:31.138Z,99980.97
2022-12-13T06:15:01.389Z,99938.53
2022-12-13T06:17:42.960Z,99976.66
2022-12-13T06:20:23.788Z,99989.59
2022-12-13T06:22:51.724Z,99985.31
2022-12-13T06:25:31.387Z,99960.19
2022-12-13T06:28:00.926Z,99977.50
2022-12-13T06:30:31.100Z,99970.50
2022-12-13T06:32:57.680Z,99970.41
2022-12-13T06:35:27.982Z,99979.09
2022-12-13T06:37:55.724Z,99957.41
2022-12-13T06:40:31.213Z,99988.63
2022-12-13T06:42:57.847Z,99991.22
2022-12-13T06:45:24.952Z,99987.00
2022-12-13T06:47:51.546Z,99965.34
2022-12-13T06:50:18.041Z,99953.16
2022-12-13T06:52:46.985Z,99980.94
2022-12-13T06:55:14.060Z,99988.72
2022-12-13T06:57:41.153Z,99981.91
2022-12-13T07:00:08.964Z,99980.22
2022-12-13T07:02:35.639Z,99975.03
2022-12-13T07:05:02.255Z,99978.50
2022-12-13T07:07:28.790Z,99994.78
2022-12-13T07:09:55.302Z,99976.66
2022-12-13T07:12:22.237Z,99983.56
2022-12-13T07:14:48.790Z,99979.25
2022-12-13T07:17:32.495Z,99962.72
2022-12-13T07:20:07.994Z,99974.09
2022-12-13T07:22:37.817Z,99987.06
2022-12-13T07:25:28.136Z,99967.94
2022-12-13T07:28:01.617Z,99983.56
2022-12-13T07:30:30.833Z,99993.06
2022-12-13T07:32:57.308Z,99987.84
2022-12-13T07:35:23.745Z,99994.78
2022-12-13T07:37:50.188Z,99998.25
2022-12-13T07:40:16.661Z,99972.34
2022-12-13T07:42:51.887Z,99992.25
2022-12-13T07:45:18.901Z,99994.91
2022-12-13T07:47:45.534Z,99965.53
2022-12-13T07:50:23.927Z,99994.09
2022-12-13T07:52:53.922Z,99988.84
2022-12-13T07:55:22.932Z,99990.53
2022-12-13T07:58:26.201Z,99996.56
2022-12-13T08:00:52.687Z,99989.66
2022-12-13T08:03:24.914Z,99996.56
2022-12-13T08:06:04.497Z,99988.94
2022-12-13T08:08:31.978Z,100002.00
2022-12-13T08:11:17.438Z,99997.72
2022-12-13T08:13:44.365Z,99967.50
2022-12-13T08:16:27.337Z,99973.53
2022-12-13T08:19:01.759Z,100002.94
2022-12-13T08:21:53.355Z,99999.50
2022-12-13T08:24:20.277Z,99973.69
2022-12-13T08:26:46.739Z,99986.69
2022-12-13T08:29:13.481Z,99971.97
2022-12-13T08:31:50.327Z,99990.13
2022-12-13T08:34:16.830Z,99994.50
2022-12-13T08:36:43.365Z,99995.47
2022-12-13T08:39:09.828Z,99977.41
2022-12-13T08:41:39.265Z,99991.28
2022-12-13T08:44:09.272Z,99986.13
2022-12-13T08:46:35.824Z,99954.16
2022-12-13T08:49:02.407Z,99988.81
2022-12-13T08:51:35.245Z,99992.34
2022-12-13T08:54:10.078Z,99991.53
2022-12-13T08:56:37.986Z,99951.84
2022-12-13T08:59:04.997Z,99998.56
2022-12-13T09:01:31.941Z,99983.91
2022-12-13T09:03:58.520Z,99977.84
2022-12-13T09:06:25.043Z,99993.50
2022-12-13T09:08:53.899Z,99986.69
2022-12-13T09:11:36.429Z,99998.78
2022-12-13T09:14:07.780Z,100006.53
2022-12-13T09:16:41.280Z,100005.63
2022-12-13T09:19:25.374Z,100005.69
2022-12-13T09:22:02.605Z,99995.34
2022-12-13T09:24:36.454Z,99991.13
2022-12-13T09:27:09.629Z,99993.72
2022-12-13T09:29:37.981Z,99972.19
2022-12-13T09:32:06.096Z,100000.78
2022-12-13T09:34:34.145Z,100018.94
2022-12-13T09:37:02.005Z,100026.72
2022-12-13T09:39:29.599Z,100011.19
2022-12-13T09:42:01.259Z,100029.34
2022-12-13T09:44:42.743Z,100012.94
2022-12-13T09:47:22.934Z,99993.00
2022-12-13T09:49:52.755Z,100028.44
2022-12-13T09:52:24.212Z,100022.44
2022-12-13T09:54:57.369Z,100017.31
2022-12-13T09:57:31.460Z,100021.72
2022-12-13T10:00:07.004Z,100021.78
2022-12-13T10:02:43.296Z,99984.66
2022-12-13T10:05:22.296Z,100015.00
2022-12-13T10:07:52.972Z,100009.00
2022-12-13T10:10:19.780Z,100002.13
2022-12-13T10:13:19.755Z,100002.97
2022-12-13T10:15:51.879Z,99976.19
2022-12-13T10:18:35.236Z,100002.13
2022-12-13T10:21:05.226Z,99996.16
2022-12-13T10:23:42.720Z,99992.69
2022-12-13T10:26:24.167Z,99995.31
2022-12-13T10:29:02.970Z,100003.97
2022-12-13T10:31:29.667Z,99997.94
2022-12-13T10:33:58.384Z,99985.84
2022-12-13T10:36:45.189Z,99976.34
2022-12-13T10:39:18.443Z,99976.34
2022-12-13T10:41:47.453Z,99969.47
2022-12-13T10:44:22.589Z,99967.75
2022-12-13T10:47:16.825Z,99971.22
2022-12-13T10:49:52.587Z,99948.75
2022-12-13T10:52:43.376Z,99968.63
2022-12-13T10:55:33.134Z,99954.78
2022-12-13T10:58:03.537Z,99959.13
2022-12-13T11:00:32.247Z,99947.88
2022-12-13T11:02:59.074Z,99918.50
2022-12-13T11:05:36.446Z,99956.53
2022-12-13T11:08:22.413Z,99955.66
2022-12-13T11:11:03.525Z,99952.19
2022-12-13T11:13:55.498Z,99938.38
2022-12-13T11:16:35.425Z,99923.69
2022-12-13T11:19:16.887Z,99925.41
2022-12-13T11:21:49.281Z,99909.00
2022-12-13T11:24:30.733Z,99912.44
2022-12-13T11:27:00.685Z,99908.13
2022-12-13T11:29:51.840Z,99924.50
2022-12-13T11:32:59.294Z,99923.66
2022-12-13T11:35:29.319Z,99924.50
2022-12-13T11:38:16.139Z,99910.69
2022-12-13T11:40:46.842Z,99906.38
2022-12-13T11:43:13.171Z,99902.03
2022-12-13T11:45:44.747Z,99899.44
2022-12-13T11:48:56.198Z,99896.84
2022-12-13T11:51:31.359Z,99905.50
2022-12-13T11:54:11.100Z,99911.56
2022-12-13T11:56:42.864Z,99900.31
2022-12-13T11:59:23.793Z,99896.00
2022-12-13T12:02:05.924Z,99895.13
2022-12-13T12:04:59.996Z,99889.06
2022-12-13T12:07:58.506Z,99861.44
2022-12-13T12:10:50.005Z,99868.34
2022-12-13T12:13:22.966Z,99892.50
2022-12-13T12:16:00.749Z,99889.00
2022-12-13T12:18:27.826Z,99871.75
2022-12-13T12:21:06.964Z,99873.47
2022-12-13T12:23:52.879Z,99870.88
2022-12-13T12:26:42.769Z,99870.03
2022-12-13T12:29:38.354Z,99859.66
2022-12-13T12:32:44.226Z,99854.47
2022-12-13T12:35:29.671Z,99829.44
2022-12-13T12:38:19.951Z,99863.91
2022-12-13T12:41:15.638Z,99850.06
2022-12-13T12:43:43.874Z,99841.44
2022-12-13T12:46:17.338Z,99840.56
2022-12-13T12:49:01.218Z,99854.38
2022-12-13T12:51:38.264Z,99836.28
2022-12-13T12:54:32.212Z,99832.78
2022-12-13T12:57:10.861Z,99836.25
2022-12-13T13:00:04.162Z,99828.47
2022-12-13T13:03:15.786Z,99839.69
2022-12-13T13:05:55.808Z,99839.69
2022-12-13T13:08:43.829Z,99842.28
2022-12-13T13:11:24.587Z,99825.00
2022-12-13T13:14:01.770Z,99832.75
2022-12-13T13:16:40.828Z,99836.16
2022-12-13T13:19:16.799Z,99825.81
2022-12-13T13:21:55.276Z,99835.22
2022-12-13T13:24:30.805Z,99830.91
2022-12-13T13:26:59.359Z,99832.59
2022-12-13T13:29:28.827Z,99837.72
2022-12-13T13:32:05.772Z,99832.53
2022-12-13T13:34:35.238Z,99836.00
2022-12-13T13:37:23.288Z,99821.28
2022-12-13T13:39:58.027Z,99824.72
2022-12-13T13:42:29.882Z,99798.03
2022-12-13T13:45:03.925Z,99789.38
2022-12-13T13:47:41.904Z,99824.78
2022-12-13T13:50:08.438Z,99827.41
2022-12-13T13:53:04.017Z,99823.09
2022-12-13T13:56:16.537Z,99824.88
2022-12-13T13:59:02.939Z,99823.09
2022-12-13T14:01:59.649Z,99825.75
2022-12-13T14:04:56.875Z,99828.38
2022-12-13T14:07:51.109Z,99798.19
2022-12-13T14:10:51.030Z,99827.50
2022-12-13T14:14:22.453Z,99806.81
2022-12-13T14:16:49.204Z,99820.59
2022-12-13T14:19:25.685Z,99839.59
2022-12-13T14:21:58.426Z,99843.09
2022-12-13T14:25:08.254Z,99839.69
2022-12-13T14:27:39.887Z,99837.94
2022-12-13T14:30:27.586Z,99829.31
2022-12-13T14:32:55.552Z,99794.81
2022-12-13T14:35:33.102Z,99837.94
2022-12-13T14:38:05.741Z,99833.63
2022-12-13T14:40:47.431Z,99821.53
2022-12-13T14:43:24.673Z,99817.16
2022-12-13T14:46:15.537Z,99817.16
2022-12-13T14:48:50.764Z,99817.19
2022-12-13T14:51:35.291Z,99819.81
2022-12-13T14:54:04.825Z,99816.41
2022-12-13T14:56:31.623Z,99802.59
2022-12-13T14:59:02.343Z,99816.44
2022-12-13T15:01:33.680Z,99824.25
2022-12-13T15:04:21.609Z,99825.13
2022-12-13T15:07:15.050Z,99824.25
2022-12-13T15:09:44.058Z,99824.28
2022-12-13T15:12:25.368Z,99829.47
2022-12-13T15:15:01.294Z,99823.41
2022-12-13T15:17:29.749Z,99815.66
2022-12-13T15:19:57.126Z,99790.63
2022-12-13T15:22:30.042Z,99806.16
2022-12-13T15:24:58.053Z,99774.25
2022-12-13T15:27:25.540Z,99800.13
2022-12-13T15:29:54.214Z,99788.88
2022-12-13T15:32:23.200Z,99794.06
2022-12-13T15:34:51.641Z,99787.16
2022-12-13T15:37:30.418Z,99756.13
2022-12-13T15:40:07.215Z,99770.69
2022-12-13T15:42:36.890Z,99768.97
2022-12-13T15:45:06.516Z,99769.84
2022-12-13T15:47:33.498Z,99773.34
2022-12-13T15:50:05.641Z,99758.66
2022-12-13T15:52:36.921Z,99767.25
2022-12-13T15:55:09.110Z,99760.31
2022-12-13T15:57:49.470Z,99753.47
2022-12-13T16:00:19.304Z,99758.66
2022-12-13T16:03:01.536Z,99764.72
2022-12-13T16:05:40.262Z,99738.00
2022-12-13T16:08:17.159Z,99758.66
2022-12-13T16:10:52.133Z,99746.63
2022-12-13T16:13:30.677Z,99751.75
2022-12-13T16:16:09.454Z,99746.63
2022-12-13T16:18:52.221Z,99752.69
2022-12-13T16:21:19.252Z,99753.53
2022-12-13T16:23:48.137Z,99760.44
2022-12-13T16:26:22.200Z,99721.63
2022-12-13T16:28:49.205Z,99750.94
2022-12-13T16:31:36.711Z,99751.81
2022-12-13T16:34:04.389Z,99752.69
2022-12-13T16:36:32.019Z,99736.31
2022-12-13T16:38:59.163Z,99738.91
2022-12-13T16:41:25.834Z,99740.63
2022-12-13T16:44:00.962Z,99744.09
2022-12-13T16:47:14.732Z,99743.22
2022-12-13T16:49:20.497Z,99735.50
2022-12-13T16:51:48.896Z,99729.47
2022-12-13T16:54:16.507Z,99743.28
2022-12-13T16:56:43.635Z,99724.28
2022-12-13T16:59:14.957Z,99726.00
2022-12-13T17:01:42.854Z,99717.38
2022-12-13T17:04:19.464Z,99717.38
2022-12-13T17:06:46.948Z,99711.34
2022-12-13T17:09:13.464Z,99723.41
2022-12-13T17:11:40.369Z,99720.84
2022-12-13T17:14:06.847Z,99685.53
2022-12-13T17:16:34.011Z,99718.25
2022-12-13T17:19:00.665Z,99703.59
2022-12-13T17:21:29.703Z,99671.72
2022-12-13T17:23:57.676Z,99713.09
2022-12-13T17:26:24.623Z,99719.16
2022-12-13T17:28:51.264Z,99710.50
2022-12-13T17:31:19.603Z,99717.41
2022-12-13T17:33:46.683Z,99688.97
2022-12-13T17:36:14.787Z,99726.03
2022-12-13T17:38:43.889Z,99703.66
2022-12-13T17:41:12.852Z,99727.81
2022-12-13T17:43:39.837Z,99723.50
2022-12-13T17:46:14.598Z,99715.72
2022-12-13T17:48:42.049Z,99715.72
2022-12-13T17:51:10.286Z,99710.50
2022-12-13T17:53:42.984Z,99700.19
2022-12-13T17:56:17.811Z,99695.84
2022-12-13T17:58:45.313Z,99707.91
2022-12-13T18:01:17.351Z,99719.13
2022-12-13T18:03:44.916Z,99700.16
2022-12-13T18:06:12.117Z,99713.09
2022-12-13T18:08:40.384Z,99704.47
2022-12-13T18:13:55.894Z,99698.44
2022-12-13T18:16:24.133Z,99692.38
2022-12-13T18:18:54.963Z,99684.63
2022-12-13T18:21:23.694Z,99693.25
2022-12-13T18:23:55.123Z,99693.25
2022-12-13T18:26:24.768Z,99688.09
2022-12-13T18:28:52.148Z,99696.75
2022-12-13T18:31:22.377Z,99670.03
2022-12-13T18:33:50.980Z,99693.28
2022-12-13T18:36:18.947Z,99694.16
2022-12-13T18:38:45.739Z,99687.25
2022-12-13T18:41:16.605Z,99688.97
2022-12-13T18:43:44.297Z,99685.53
2022-12-13T18:46:12.467Z,99681.22
2022-12-13T18:48:39.580Z,99687.25
2022-12-13T18:51:07.901Z,99691.56
2022-12-13T18:53:35.905Z,99683.84
2022-12-13T18:56:05.410Z,99691.59
2022-12-13T18:58:33.290Z,99659.72
2022-12-13T19:01:00.425Z,99694.16
2022-12-13T19:03:27.445Z,99657.13
2022-12-13T19:05:57.985Z,99670.00
2022-12-13T19:08:26.514Z,99643.28
2022-12-13T19:10:57.950Z,99662.22
2022-12-13T19:13:26.009Z,99665.69
2022-12-13T19:15:54.514Z,99645.00
2022-12-13T19:18:21.730Z,99661.41
2022-12-13T19:20:49.651Z,99670.03
2022-12-13T19:23:17.983Z,99668.31
2022-12-13T19:25:45.389Z,99674.34
2022-12-13T19:28:17.708Z,99666.56
2022-12-13T19:30:46.111Z,99657.94
2022-12-13T19:33:13.428Z,99648.47
2022-12-13T19:35:41.300Z,99613.13
2022-12-13T19:38:08.535Z,99617.44
2022-12-13T19:40:35.029Z,99649.31
2022-12-13T19:43:01.564Z,99642.44
2022-12-13T19:45:28.230Z,99638.09
2022-12-13T19:47:55.378Z,99638.97
2022-12-13T19:50:21.973Z,99639.88
2022-12-13T19:52:48.979Z,99637.25
2022-12-13T19:55:15.509Z,99625.22
2022-12-13T19:57:42.031Z,99620.91
2022-12-13T20:00:08.980Z,99623.47
2022-12-13T20:02:35.975Z,99589.88
2022-12-13T20:05:02.726Z,99622.59
2022-12-13T20:07:29.382Z,99599.34
2022-12-13T20:09:55.971Z,99627.75
2022-12-13T20:12:22.615Z,99618.28
2022-12-13T20:14:49.212Z,99614.00
2022-12-13T20:17:15.863Z,99617.41
2022-12-13T20:19:42.389Z,99622.59
2022-12-13T20:22:09.357Z,99616.59
2022-12-13T20:24:35.868Z,99617.44
2022-12-13T20:27:02.675Z,99605.38
2022-12-13T20:29:29.395Z,99611.41
2022-12-13T20:31:56.773Z,99610.50
2022-12-13T20:34:23.447Z,99595.84
2022-12-13T20:36:50.278Z,99588.13
2022-12-13T20:39:16.732Z,99612.28
2022-12-13T20:41:43.412Z,99590.72
2022-12-13T20:44:12.421Z,99590.72
2022-12-13T20:46:39.860Z,99589.84
2022-12-13T20:49:09.195Z,99591.56
2022-12-13T20:51:37.467Z,99594.16
2022-12-13T20:54:04.671Z,99591.56
2022-12-13T20:56:35.179Z,99591.56
2022-12-13T20:59:07.348Z,99552.78
2022-12-13T21:01:37.873Z,99580.22
2022-12-13T21:04:06.536Z,99575.03
2022-12-13T21:06:36.038Z,99563.00
2022-12-13T21:09:04.842Z,99571.66
2022-12-13T21:11:43.401Z,99562.19
2022-12-13T21:14:25.343Z,99549.31
2022-12-13T21:16:54.612Z,99576.88
2022-12-13T21:19:23.600Z,99574.31
2022-12-13T21:21:51.017Z,99566.56
2022-12-13T21:24:19.150Z,99564.84
2022-12-13T21:26:45.978Z,99552.75
2022-12-13T21:29:14.086Z,99550.13
2022-12-13T21:31:43.179Z,99559.63
2022-12-13T21:34:10.887Z,99551.00
2022-12-13T21:36:38.821Z,99514.81
2022-12-13T21:39:28.531Z,99512.22
2022-12-13T21:41:55.605Z,99540.59
2022-12-13T21:44:22.888Z,99539.72
2022-12-13T21:49:38.414Z,99521.59
2022-12-13T21:52:05.131Z,99523.31
2022-12-13T21:54:31.583Z,99506.06
2022-12-13T21:57:16.441Z,99499.16
2022-12-13T21:59:43.322Z,99489.66
2022-12-13T22:02:16.271Z,99490.53
2022-12-13T22:04:45.462Z,99484.47
2022-12-13T22:07:33.065Z,99474.16
2022-12-13T22:10:02.279Z,99475.88
2022-12-13T22:12:32.063Z,99436.34
2022-12-13T22:14:58.996Z,99469.03
2022-12-13T22:17:33.111Z,99441.50
2022-12-13T22:20:02.832Z,99457.81
2022-12-13T22:22:29.499Z,99446.59
2022-12-13T22:24:56.106Z,99438.00
2022-12-13T22:27:25.831Z,99417.38
2022-12-13T22:29:54.142Z,99444.03
2022-12-13T22:32:21.326Z,99447.47
2022-12-13T22:34:50.568Z,99412.22
2022-12-13T22:37:17.118Z,99433.75
2022-12-13T22:39:46.098Z,99431.09
2022-12-13T22:42:12.747Z,99419.03
2022-12-13T22:44:42.260Z,99423.34
2022-12-13T22:47:09.143Z,99391.59
2022-12-13T22:49:38.025Z,99411.34
2022-12-13T22:52:08.101Z,99419.09
2022-12-13T22:54:36.026Z,99378.69
2022-12-13T22:57:02.699Z,99417.38
2022-12-13T22:59:29.324Z,99403.56
2022-12-13T23:02:02.207Z,99398.41
2022-12-13T23:07:12.528Z,99382.00
2022-12-13T23:09:39.088Z,99390.63
2022-12-13T23:12:24.502Z,99387.19
2022-12-13T23:14:51.548Z,99394.94
2022-12-13T23:17:18.160Z,99382.00
2022-12-13T23:19:50.290Z,99362.25
2022-12-13T23:22:22.036Z,99394.94
2022-12-13T23:24:50.108Z,99382.03
2022-12-13T23:27:17.374Z,99392.31
2022-12-13T23:29:43.906Z,99385.44
2022-12-13T23:32:11.665Z,99381.94
2022-12-13T23:34:38.402Z,99358.75
2022-12-13T23:37:04.933Z,99370.78
2022-12-13T23:39:33.053Z,99378.50
2022-12-13T23:41:59.552Z,99346.69
2022-12-13T23:44:26.108Z,99355.28
2022-12-13T23:46:52.681Z,99352.66
2022-12-13T23:49:19.281Z,99321.69
2022-12-13T23:51:45.824Z,99356.13
2022-12-13T23:54:16.582Z,99363.91
2022-12-13T23:56:43.504Z,99370.81
2022-12-13T23:59:10.214Z,99374.28
